Time;durP1;ratioP1;P1;durP2;ratioP2;P2;SDS_P1;SDS_P2;PMS_P1;PMS_P2;Temp;Humidity;BMP_temperature;BMP_pressure;BME280_temperature;BME280_humidity;BME280_pressure;Samples;Min_cycle;Max_cycle;Signal;HPM_P1;HPM_P2
2023/07/21 00:01:48;;;;;;;6.50;2.63;;;14.80;99.90;;;;;;5148389;27;20178;-79
2023/07/21 00:04:14;;;;;;;4.10;2.75;;;14.70;99.90;;;;;;5144633;27;20087;-80
2023/07/21 00:06:43;;;;;;;4.25;2.85;;;14.60;99.90;;;;;;5142105;27;20596;-79
2023/07/21 00:09:09;;;;;;;5.25;3.03;;;14.60;99.90;;;;;;5147227;27;20073;-79
2023/07/21 00:11:35;;;;;;;4.47;2.58;;;14.50;99.90;;;;;;5150611;27;20098;-78
2023/07/21 00:14:01;;;;;;;4.15;2.67;;;14.50;99.90;;;;;;5147213;27;20046;-79
2023/07/21 00:16:27;;;;;;;4.05;2.60;;;14.50;99.90;;;;;;5143026;27;20039;-79
2023/07/21 00:18:53;;;;;;;3.75;2.28;;;14.60;99.90;;;;;;5121888;27;20117;-78
2023/07/21 00:21:19;;;;;;;3.20;2.38;;;14.50;99.90;;;;;;5151934;27;20074;-80
2023/07/21 00:23:46;;;;;;;2.67;2.20;;;14.50;99.90;;;;;;5151627;27;20525;-80
2023/07/21 00:26:13;;;;;;;3.00;2.15;;;14.50;99.90;;;;;;5147211;27;20046;-79
2023/07/21 00:28:39;;;;;;;2.45;1.80;;;14.50;99.90;;;;;;5144921;27;20464;-78
2023/07/21 00:31:04;;;;;;;4.57;2.40;;;14.50;99.90;;;;;;5141256;27;20143;-79
2023/07/21 00:33:30;;;;;;;4.88;2.90;;;14.40;99.90;;;;;;5142636;27;20026;-82
2023/07/21 00:35:57;;;;;;;3.30;2.60;;;14.30;99.90;;;;;;5147658;27;20066;-79
2023/07/21 00:38:22;;;;;;;4.78;2.50;;;14.30;99.90;;;;;;5152535;27;20030;-79
2023/07/21 00:40:48;;;;;;;4.00;2.50;;;14.20;99.90;;;;;;5150824;27;20027;-79
2023/07/21 00:43:15;;;;;;;4.80;2.85;;;14.10;99.90;;;;;;5147107;27;20343;-79
2023/07/21 00:45:40;;;;;;;5.53;3.35;;;14.00;99.90;;;;;;5151650;27;20079;-79
2023/07/21 00:48:10;;;;;;;5.10;3.10;;;14.00;99.90;;;;;;5124884;27;20027;-79
2023/07/21 00:50:49;;;;;;;4.45;3.10;;;14.00;99.90;;;;;;5138951;27;20031;-78
2023/07/21 00:53:15;;;;;;;3.65;2.90;;;14.00;99.90;;;;;;5131679;27;20031;-81
2023/07/21 00:55:42;;;;;;;5.70;3.22;;;13.90;99.90;;;;;;5140263;27;20405;-79
2023/07/21 00:58:11;;;;;;;5.95;3.30;;;13.80;99.90;;;;;;5144630;27;20110;-78
2023/07/21 01:00:38;;;;;;;4.95;3.30;;;13.70;99.90;;;;;;5145868;27;20564;-78
2023/07/21 01:03:05;;;;;;;5.57;3.35;;;13.50;99.90;;;;;;5145127;27;20083;-79
2023/07/21 01:05:34;;;;;;;4.65;3.05;;;13.40;99.90;;;;;;5132299;27;20410;-80
2023/07/21 01:08:02;;;;;;;4.40;2.92;;;13.40;99.90;;;;;;5145039;27;20039;-78
2023/07/21 01:10:29;;;;;;;4.53;3.22;;;13.40;99.90;;;;;;5151936;27;20566;-79
2023/07/21 01:12:55;;;;;;;4.97;2.60;;;13.50;99.90;;;;;;5149203;27;20114;-78
2023/07/21 01:15:21;;;;;;;3.67;2.80;;;13.50;99.90;;;;;;5127447;27;20030;-78
2023/07/21 01:17:50;;;;;;;4.72;2.95;;;13.40;99.90;;;;;;5142955;27;20042;-79
2023/07/21 01:20:17;;;;;;;3.47;2.63;;;13.40;99.90;;;;;;5142699;27;20042;-79
2023/07/21 01:22:51;;;;;;;4.53;3.08;;;13.40;99.90;;;;;;5149892;27;20046;-80
2023/07/21 01:25:18;;;;;;;6.00;3.20;;;13.40;99.90;;;;;;5142296;27;20084;-80
2023/07/21 01:27:47;;;;;;;3.90;2.72;;;13.30;99.90;;;;;;5141799;27;20109;-78
2023/07/21 01:30:16;;;;;;;5.25;3.20;;;13.20;99.90;;;;;;5142103;27;20092;-78
2023/07/21 01:32:44;;;;;;;4.90;3.08;;;13.20;99.90;;;;;;5143401;27;20132;-80
2023/07/21 01:35:11;;;;;;;5.35;3.10;;;13.20;99.90;;;;;;5112868;27;20117;-79
2023/07/21 01:37:38;;;;;;;3.75;3.03;;;13.10;99.90;;;;;;5119929;27;20032;-79
2023/07/21 01:40:06;;;;;;;5.70;3.50;;;13.10;99.90;;;;;;5141731;27;20058;-80
2023/07/21 01:42:33;;;;;;;4.20;3.30;;;13.00;99.90;;;;;;5147267;27;20038;-78
2023/07/21 01:45:02;;;;;;;4.00;3.13;;;13.00;99.90;;;;;;5148091;27;20080;-78
2023/07/21 01:47:37;;;;;;;5.80;3.65;;;13.00;99.90;;;;;;5142184;27;20082;-78
2023/07/21 01:50:08;;;;;;;4.82;2.92;;;13.00;99.90;;;;;;5136442;27;20043;-78
2023/07/21 01:52:35;;;;;;;4.40;3.10;;;12.90;99.90;;;;;;5145515;27;20054;-79
2023/07/21 01:55:07;;;;;;;4.43;3.03;;;12.90;99.90;;;;;;5143191;27;20053;-78
2023/07/21 01:57:37;;;;;;;3.78;3.10;;;12.80;99.90;;;;;;5149203;27;20041;-79
2023/07/21 02:00:09;;;;;;;6.00;3.72;;;12.80;99.90;;;;;;5144348;27;20512;-78
2023/07/21 02:02:36;;;;;;;3.90;3.10;;;12.80;99.90;;;;;;5124856;27;20031;-78
2023/07/21 02:05:01;;;;;;;6.45;3.83;;;12.70;99.90;;;;;;5151036;27;20103;-78
2023/07/21 02:07:27;;;;;;;4.88;3.60;;;12.70;99.90;;;;;;5139430;27;20039;-79
2023/07/21 02:09:53;;;;;;;4.80;3.60;;;12.80;99.90;;;;;;5135951;27;20508;-79
2023/07/21 02:12:19;;;;;;;4.05;3.55;;;12.80;99.90;;;;;;5132796;27;20123;-78
2023/07/21 02:14:45;;;;;;;4.60;3.40;;;12.90;99.90;;;;;;5138355;27;20043;-78
2023/07/21 02:17:11;;;;;;;5.10;3.70;;;12.90;99.90;;;;;;5129647;27;20031;-77
2023/07/21 02:19:37;;;;;;;5.32;3.58;;;13.00;99.90;;;;;;5154018;27;20039;-79
2023/07/21 02:22:02;;;;;;;5.50;3.58;;;13.00;99.90;;;;;;5144323;27;20610;-79
2023/07/21 02:24:28;;;;;;;5.25;3.38;;;13.00;99.90;;;;;;5152868;27;20497;-78
2023/07/21 02:26:54;;;;;;;5.43;3.30;;;13.00;99.90;;;;;;5154161;27;20046;-79
2023/07/21 02:29:20;;;;;;;3.85;3.22;;;13.00;99.90;;;;;;5140513;27;20119;-78
2023/07/21 02:31:45;;;;;;;4.70;3.47;;;12.90;99.90;;;;;;5144208;27;20068;-78
2023/07/21 02:34:11;;;;;;;4.57;3.40;;;12.90;99.90;;;;;;5147845;27;20037;-78
2023/07/21 02:36:37;;;;;;;5.32;2.90;;;12.90;99.90;;;;;;5144113;27;20051;-77
2023/07/21 02:39:04;;;;;;;3.88;3.13;;;12.90;99.90;;;;;;5145318;27;20038;-78
2023/07/21 02:41:30;;;;;;;5.05;3.38;;;12.90;99.90;;;;;;5148939;27;20557;-77
2023/07/21 02:43:55;;;;;;;4.38;3.30;;;12.80;99.90;;;;;;5150297;27;20113;-78
2023/07/21 02:46:21;;;;;;;4.53;3.10;;;12.80;99.90;;;;;;5145916;27;20121;-77
2023/07/21 02:48:47;;;;;;;4.20;2.95;;;12.80;99.90;;;;;;5149255;27;20050;-79
2023/07/21 02:51:12;;;;;;;5.07;3.35;;;12.80;99.90;;;;;;5137016;27;20037;-78
2023/07/21 02:53:38;;;;;;;4.72;3.15;;;12.80;99.90;;;;;;5126862;27;20027;-77
2023/07/21 02:56:03;;;;;;;4.90;3.45;;;12.80;99.90;;;;;;5139510;27;20578;-78
2023/07/21 02:58:30;;;;;;;4.65;3.03;;;12.70;99.90;;;;;;5145778;27;20122;-78
2023/07/21 03:00:55;;;;;;;4.43;3.13;;;12.80;99.90;;;;;;5145035;27;20034;-77
2023/07/21 03:03:24;;;;;;;3.97;2.90;;;12.80;99.90;;;;;;5149392;27;20087;-77
2023/07/21 03:05:49;;;;;;;4.47;2.85;;;12.80;99.90;;;;;;5144889;27;20497;-77
2023/07/21 03:08:19;;;;;;;5.20;2.72;;;12.80;99.90;;;;;;5153257;27;20034;-78
2023/07/21 03:10:45;;;;;;;5.30;3.25;;;12.80;99.90;;;;;;5150969;27;20173;-78
2023/07/21 03:13:12;;;;;;;3.45;2.83;;;12.70;99.90;;;;;;5149545;27;20034;-78
2023/07/21 03:15:38;;;;;;;4.47;3.05;;;12.60;99.90;;;;;;5152832;27;20401;-78
2023/07/21 03:18:04;;;;;;;5.70;2.90;;;12.60;99.90;;;;;;5149745;27;20046;-78
2023/07/21 03:20:30;;;;;;;3.65;2.75;;;12.60;99.90;;;;;;5148508;27;20058;-77
2023/07/21 03:22:55;;;;;;;4.32;3.67;;;12.60;99.90;;;;;;5150004;27;20374;-78
2023/07/21 03:25:21;;;;;;;4.68;2.78;;;12.60;99.90;;;;;;5150273;27;20441;-78
2023/07/21 03:27:47;;;;;;;5.82;4.03;;;12.50;99.90;;;;;;5144267;27;20035;-78
2023/07/21 03:30:14;;;;;;;4.90;3.05;;;12.60;99.90;;;;;;5152739;27;20497;-78
2023/07/21 03:32:40;;;;;;;3.95;2.92;;;12.50;99.90;;;;;;5149233;27;20035;-78
2023/07/21 03:35:06;;;;;;;4.60;3.35;;;12.50;99.90;;;;;;5144945;27;20043;-78
2023/07/21 03:37:36;;;;;;;6.55;3.80;;;12.40;99.90;;;;;;5125586;27;20033;-79
2023/07/21 03:40:06;;;;;;;6.70;3.38;;;12.40;99.90;;;;;;5130213;27;20472;-77
2023/07/21 03:42:34;;;;;;;6.78;3.22;;;12.40;99.90;;;;;;5145709;27;20050;-77
2023/07/21 03:45:03;;;;;;;4.57;2.97;;;12.40;99.90;;;;;;5144627;27;20148;-78
2023/07/21 03:47:35;;;;;;;4.68;3.38;;;12.30;99.90;;;;;;5143878;27;20050;-77
2023/07/21 03:50:01;;;;;;;5.00;3.60;;;12.40;99.90;;;;;;5122786;27;20041;-77
2023/07/21 03:52:27;;;;;;;5.50;3.67;;;12.40;99.90;;;;;;5142905;27;20026;-81
2023/07/21 03:54:53;;;;;;;4.53;3.33;;;12.30;99.90;;;;;;5152908;27;20091;-78
2023/07/21 03:57:19;;;;;;;4.32;3.40;;;12.30;99.90;;;;;;5146512;27;20043;-78
2023/07/21 03:59:45;;;;;;;5.43;3.70;;;12.30;99.90;;;;;;5144290;27;20034;-78
2023/07/21 04:02:10;;;;;;;4.82;3.28;;;12.30;99.90;;;;;;5147478;27;20061;-80
2023/07/21 04:04:36;;;;;;;3.65;2.90;;;12.20;99.90;;;;;;5147642;27;20041;-79
2023/07/21 04:07:05;;;;;;;5.28;3.53;;;12.20;99.90;;;;;;5148271;27;20039;-78
2023/07/21 04:09:34;;;;;;;5.05;3.53;;;12.20;99.90;;;;;;5148214;27;20049;-78
2023/07/21 04:12:00;;;;;;;4.63;3.53;;;12.20;99.90;;;;;;5146454;27;20058;-77
2023/07/21 04:14:26;;;;;;;6.10;3.28;;;12.20;99.90;;;;;;5151363;27;20070;-78
2023/07/21 04:16:53;;;;;;;5.90;3.72;;;12.30;99.90;;;;;;5143064;27;20035;-77
2023/07/21 04:19:19;;;;;;;5.78;3.80;;;12.40;99.90;;;;;;5147420;27;20570;-78
2023/07/21 04:21:46;;;;;;;5.63;3.70;;;12.30;99.90;;;;;;5150008;27;20030;-78
2023/07/21 04:24:11;;;;;;;4.63;3.60;;;12.30;99.90;;;;;;5145341;27;20066;-78
2023/07/21 04:26:37;;;;;;;6.03;3.90;;;12.30;99.90;;;;;;5148528;27;20069;-78
2023/07/21 04:29:03;;;;;;;6.20;3.50;;;12.40;99.90;;;;;;5145878;27;20520;-78
2023/07/21 04:31:28;;;;;;;7.30;4.18;;;12.40;99.90;;;;;;5141161;27;20164;-78
2023/07/21 04:33:58;;;;;;;6.35;3.85;;;12.40;99.90;;;;;;5142812;27;20079;-79
2023/07/21 04:36:24;;;;;;;5.60;3.75;;;12.40;99.90;;;;;;5151215;27;20043;-77
2023/07/21 04:38:49;;;;;;;4.35;3.60;;;12.40;99.90;;;;;;5147187;27;20042;-78
2023/07/21 04:41:16;;;;;;;5.60;3.63;;;12.40;99.90;;;;;;5143377;27;20031;-77
2023/07/21 04:43:42;;;;;;;5.85;3.83;;;12.40;99.90;;;;;;5150898;27;20039;-77
2023/07/21 04:46:09;;;;;;;6.03;4.10;;;12.50;99.90;;;;;;5137012;27;20043;-77
2023/07/21 04:48:35;;;;;;;5.75;4.00;;;12.50;99.90;;;;;;5138475;27;20051;-78
2023/07/21 04:51:01;;;;;;;4.85;3.78;;;12.60;99.90;;;;;;5145555;27;20409;-77
2023/07/21 04:53:26;;;;;;;6.70;4.15;;;12.70;99.90;;;;;;5145933;27;20039;-77
2023/07/21 04:55:56;;;;;;;7.55;3.78;;;12.80;99.90;;;;;;5144076;27;20033;-77
2023/07/21 04:58:21;;;;;;;4.43;3.47;;;12.90;99.90;;;;;;5145227;27;20063;-78
2023/07/21 05:00:47;;;;;;;6.30;3.25;;;13.10;99.90;;;;;;5136715;27;20069;-78
2023/07/21 05:03:12;;;;;;;7.43;3.63;;;13.20;99.90;;;;;;5143832;27;20035;-77
2023/07/21 05:05:39;;;;;;;5.10;3.45;;;13.40;99.90;;;;;;5149627;27;20039;-77
2023/07/21 05:08:04;;;;;;;8.88;3.83;;;13.50;99.90;;;;;;5147999;27;20045;-77
2023/07/21 05:10:31;;;;;;;5.25;3.38;;;13.60;99.90;;;;;;5149515;27;20038;-77
2023/07/21 05:12:57;;;;;;;6.57;3.35;;;13.70;99.90;;;;;;5143998;27;20031;-77
2023/07/21 05:15:24;;;;;;;5.47;3.53;;;13.90;99.90;;;;;;5149904;27;20401;-79
2023/07/21 05:17:50;;;;;;;4.95;3.45;;;14.00;99.90;;;;;;5146457;27;20030;-77
2023/07/21 05:20:16;;;;;;;4.68;3.30;;;14.20;99.90;;;;;;5152113;27;20134;-77
2023/07/21 05:22:41;;;;;;;4.90;3.28;;;14.30;99.90;;;;;;5149190;27;20039;-79
2023/07/21 05:25:09;;;;;;;4.45;3.20;;;14.40;99.90;;;;;;5142671;27;20043;-77
2023/07/21 05:27:34;;;;;;;3.83;2.63;;;14.40;99.90;;;;;;5150294;27;20532;-77
2023/07/21 05:30:00;;;;;;;5.47;3.30;;;14.40;99.90;;;;;;5146265;27;20031;-78
2023/07/21 05:32:25;;;;;;;4.25;2.88;;;14.30;99.90;;;;;;5152842;27;20039;-78
2023/07/21 05:34:51;;;;;;;4.03;2.90;;;14.40;99.90;;;;;;5134492;27;20402;-77
2023/07/21 05:37:17;;;;;;;4.82;3.03;;;14.50;99.90;;;;;;5144744;27;20047;-78
2023/07/21 05:39:42;;;;;;;6.57;2.92;;;14.50;99.90;;;;;;5133882;27;20054;-78
2023/07/21 05:42:08;;;;;;;3.67;2.88;;;14.60;99.90;;;;;;5122209;27;20118;-77
2023/07/21 05:44:34;;;;;;;5.43;2.90;;;14.70;99.90;;;;;;5140941;27;20070;-79
2023/07/21 05:47:00;;;;;;;7.57;3.20;;;14.70;99.90;;;;;;5148162;27;20037;-78
2023/07/21 05:49:25;;;;;;;5.22;3.03;;;14.80;99.90;;;;;;5141690;27;20039;-79
2023/07/21 05:51:52;;;;;;;6.55;2.80;;;14.80;99.90;;;;;;5149400;27;20127;-78
2023/07/21 05:54:18;;;;;;;5.32;2.80;;;14.90;99.90;;;;;;5139120;27;20038;-78
2023/07/21 05:56:43;;;;;;;3.85;2.78;;;15.00;99.90;;;;;;5138773;27;20038;-78
2023/07/21 05:59:09;;;;;;;5.38;2.95;;;15.20;99.90;;;;;;5136868;27;20126;-78
2023/07/21 06:01:36;;;;;;;4.75;2.67;;;15.40;99.90;;;;;;5147478;27;20034;-79
2023/07/21 06:04:03;;;;;;;4.68;2.67;;;15.50;99.90;;;;;;5146460;27;20038;-78
2023/07/21 06:06:29;;;;;;;4.30;2.63;;;15.80;99.90;;;;;;5120504;28;20168;-79
2023/07/21 06:08:55;;;;;;;4.97;3.00;;;15.90;99.90;;;;;;5128258;27;20039;-78
2023/07/21 06:11:22;;;;;;;4.72;2.90;;;16.10;99.90;;;;;;5143264;27;20043;-78
2023/07/21 06:13:48;;;;;;;6.93;2.63;;;16.20;99.90;;;;;;5141070;27;20147;-78
2023/07/21 06:16:13;;;;;;;4.68;2.35;;;16.30;99.90;;;;;;5139440;27;20662;-79
2023/07/21 06:18:39;;;;;;;6.95;3.00;;;16.40;99.90;;;;;;5149585;27;20038;-78
2023/07/21 06:21:04;;;;;;;4.00;2.47;;;16.50;99.90;;;;;;5143137;27;20490;-80
2023/07/21 06:23:30;;;;;;;5.25;2.60;;;16.60;99.90;;;;;;5125104;27;20475;-78
2023/07/21 06:25:55;;;;;;;6.55;2.50;;;16.60;99.90;;;;;;5141195;27;20092;-79
2023/07/21 06:28:21;;;;;;;4.32;2.40;;;16.80;99.90;;;;;;5144103;27;20041;-79
2023/07/21 06:30:47;;;;;;;4.78;2.35;;;16.90;99.90;;;;;;5141027;27;20057;-78
2023/07/21 06:33:13;;;;;;;4.65;2.28;;;17.00;99.90;;;;;;5140461;27;20058;-80
2023/07/21 06:35:39;;;;;;;3.92;2.20;;;17.10;99.90;;;;;;5140389;27;20485;-80
2023/07/21 06:38:07;;;;;;;6.50;2.13;;;17.20;99.90;;;;;;5146225;27;20034;-77
2023/07/21 06:40:33;;;;;;;4.00;2.17;;;17.30;99.90;;;;;;5151229;27;20553;-79
2023/07/21 06:42:58;;;;;;;5.40;2.50;;;17.40;99.90;;;;;;5137287;27;20035;-78
2023/07/21 06:45:24;;;;;;;5.65;2.22;;;17.60;99.90;;;;;;5137399;27;20088;-79
2023/07/21 06:47:50;;;;;;;4.22;2.05;;;17.80;99.90;;;;;;5142724;27;20118;-78
2023/07/21 06:50:16;;;;;;;3.63;1.80;;;18.00;99.90;;;;;;5142897;27;20126;-79
2023/07/21 06:52:42;;;;;;;3.28;1.73;;;18.10;99.90;;;;;;5148957;27;20035;-78
2023/07/21 06:55:08;;;;;;;3.17;1.38;;;18.20;99.90;;;;;;5131891;27;20031;-79
2023/07/21 06:57:33;;;;;;;6.45;2.00;;;18.20;99.90;;;;;;5143395;27;20114;-79
2023/07/21 06:59:59;;;;;;;3.15;1.80;;;18.10;99.90;;;;;;5136786;27;20114;-79
2023/07/21 07:02:24;;;;;;;6.13;2.30;;;18.20;99.90;;;;;;5143890;27;20046;-79
2023/07/21 07:04:51;;;;;;;3.05;2.00;;;18.40;99.90;;;;;;5152013;27;20504;-79
2023/07/21 07:07:17;;;;;;;2.20;1.38;;;18.50;99.90;;;;;;5144807;27;20409;-78
2023/07/21 07:09:43;;;;;;;3.58;1.42;;;18.60;99.90;;;;;;5138900;27;20042;-78
2023/07/21 07:12:08;;;;;;;4.32;1.38;;;18.50;99.90;;;;;;5146097;27;20108;-77
2023/07/21 07:14:34;;;;;;;4.38;1.50;;;18.50;99.90;;;;;;5153111;27;20039;-78
2023/07/21 07:17:00;;;;;;;1.90;1.23;;;18.50;99.90;;;;;;5145440;27;20035;-78
2023/07/21 07:19:26;;;;;;;2.55;1.50;;;18.70;99.90;;;;;;5133129;27;20043;-78
2023/07/21 07:21:51;;;;;;;3.35;1.75;;;18.70;99.90;;;;;;5132975;27;20122;-79
2023/07/21 07:24:17;;;;;;;2.38;1.40;;;18.80;99.90;;;;;;5145986;27;20049;-78
2023/07/21 07:26:42;;;;;;;2.70;1.15;;;19.00;99.90;;;;;;5139858;27;20405;-78
2023/07/21 07:29:08;;;;;;;2.88;1.30;;;19.20;99.90;;;;;;5136796;27;20125;-79
2023/07/21 07:31:36;;;;;;;3.65;1.40;;;19.30;99.90;;;;;;5133698;27;20118;-77
2023/07/21 07:34:03;;;;;;;3.05;1.30;;;19.40;99.90;;;;;;5136258;27;20039;-77
2023/07/21 07:36:29;;;;;;;2.65;1.40;;;19.60;99.90;;;;;;5136269;27;20507;-78
2023/07/21 07:38:54;;;;;;;2.58;1.50;;;19.70;99.90;;;;;;5137071;27;20042;-78
2023/07/21 07:41:20;;;;;;;2.67;1.80;;;19.60;99.90;;;;;;5144483;27;20042;-78
2023/07/21 07:43:46;;;;;;;2.28;1.40;;;19.50;99.90;;;;;;5144825;27;20035;-77
2023/07/21 07:46:11;;;;;;;3.47;1.33;;;19.30;99.90;;;;;;5152662;27;20030;-77
2023/07/21 07:48:37;;;;;;;2.13;1.30;;;19.40;99.90;;;;;;5150843;27;20155;-78
2023/07/21 07:51:04;;;;;;;1.52;1.17;;;19.40;99.90;;;;;;5142252;27;20099;-78
2023/07/21 07:53:34;;;;;;;1.85;1.30;;;19.50;99.90;;;;;;5132192;27;20035;-77
2023/07/21 07:56:00;;;;;;;2.53;1.30;;;19.60;99.90;;;;;;5142137;27;20118;-78
2023/07/21 07:58:26;;;;;;;1.80;1.25;;;19.80;99.90;;;;;;5138876;27;20518;-76
2023/07/21 08:00:58;;;;;;;2.40;1.60;;;19.70;99.90;;;;;;5153532;27;20086;-77
2023/07/21 08:03:25;;;;;;;2.42;1.80;;;19.60;99.90;;;;;;5140927;27;20079;-76
2023/07/21 08:05:51;;;;;;;4.50;2.10;;;19.60;99.90;;;;;;5147556;27;20035;-76
2023/07/21 08:08:18;;;;;;;2.85;1.70;;;19.60;99.90;;;;;;5143971;27;20374;-78
2023/07/21 08:10:44;;;;;;;2.50;1.60;;;19.70;99.90;;;;;;5148940;27;20039;-78
2023/07/21 08:13:10;;;;;;;4.55;1.50;;;19.80;99.90;;;;;;5147767;27;20045;-78
2023/07/21 08:15:42;;;;;;;2.13;1.45;;;20.00;99.90;;;;;;5142913;27;20114;-78
2023/07/21 08:18:08;;;;;;;2.33;1.38;;;20.00;99.90;;;;;;5142598;27;20031;-77
2023/07/21 08:20:37;;;;;;;3.10;1.52;;;20.30;99.90;;;;;;5145309;27;20046;-78
2023/07/21 08:23:03;;;;;;;2.60;1.50;;;20.60;99.90;;;;;;5132323;27;20087;-78
2023/07/21 08:25:28;;;;;;;2.15;1.30;;;20.70;99.90;;;;;;5125142;27;20498;-79
2023/07/21 08:27:54;;;;;;;5.82;1.38;;;20.50;99.90;;;;;;5140395;27;20073;-77
2023/07/21 08:30:20;;;;;;;2.45;1.48;;;20.50;99.90;;;;;;5142500;27;20046;-77
2023/07/21 08:32:45;;;;;;;2.88;1.50;;;20.70;99.90;;;;;;5147249;27;20027;-77
2023/07/21 08:35:11;;;;;;;2.35;1.25;;;20.80;99.90;;;;;;5132390;27;20043;-77
2023/07/21 08:37:38;;;;;;;2.33;1.42;;;21.00;99.90;;;;;;5125218;27;20027;-79
2023/07/21 08:40:08;;;;;;;3.13;1.30;;;21.00;99.90;;;;;;5124719;27;20095;-77
2023/07/21 08:42:35;;;;;;;1.50;1.15;;;21.20;99.90;;;;;;5145398;27;20039;-76
2023/07/21 08:45:02;;;;;;;2.40;1.30;;;21.30;99.90;;;;;;5139836;27;20083;-76
2023/07/21 08:47:27;;;;;;;1.65;1.20;;;21.50;99.90;;;;;;5132540;27;20118;-77
2023/07/21 08:49:53;;;;;;;1.42;1.10;;;21.60;99.90;;;;;;5152195;27;20125;-77
2023/07/21 08:52:19;;;;;;;2.40;1.27;;;21.80;99.90;;;;;;5143318;27;20404;-79
2023/07/21 08:54:44;;;;;;;2.00;1.30;;;21.90;99.90;;;;;;5144216;27;20042;-78
2023/07/21 08:57:14;;;;;;;3.63;1.50;;;21.90;99.90;;;;;;5144081;27;20088;-77
2023/07/21 08:59:40;;;;;;;1.60;1.30;;;22.00;99.90;;;;;;5141835;27;20382;-76
2023/07/21 09:02:05;;;;;;;1.77;1.00;;;22.20;99.90;;;;;;5151319;27;20056;-77
2023/07/21 09:04:31;;;;;;;1.95;1.15;;;22.30;99.90;;;;;;5145476;27;20059;-77
2023/07/21 09:06:59;;;;;;;2.78;1.40;;;22.20;99.90;;;;;;5150947;27;20023;-77
2023/07/21 09:09:26;;;;;;;1.90;1.10;;;22.00;99.90;;;;;;5150275;27;20039;-77
2023/07/21 09:12:11;;;;;;;1.98;1.38;;;21.70;99.90;;;;;;5148678;27;20031;-77
2023/07/21 09:14:43;;;;;;;3.28;1.20;;;21.40;99.90;;;;;;5148082;27;20046;-77
2023/07/21 09:17:12;;;;;;;1.60;0.98;;;21.30;99.90;;;;;;5147853;27;20433;-78
2023/07/21 09:19:43;;;;;;;3.00;1.15;;;21.20;99.90;;;;;;5143245;27;20549;-79
2023/07/21 09:22:10;;;;;;;1.42;1.00;;;21.30;99.90;;;;;;5144464;27;20523;-76
2023/07/21 09:24:37;;;;;;;3.30;1.30;;;21.30;99.90;;;;;;5146811;27;20053;-79
2023/07/21 09:27:13;;;;;;;3.97;1.40;;;21.50;99.90;;;;;;5146618;27;20038;-77
2023/07/21 09:29:40;;;;;;;1.60;1.05;;;21.50;99.90;;;;;;5144508;27;20401;-77
2023/07/21 09:32:18;;;;;;;3.08;1.20;;;21.50;99.90;;;;;;5146666;27;20031;-77
2023/07/21 09:35:01;;;;;;;1.70;1.08;;;21.40;99.90;;;;;;5141506;27;20041;-77
2023/07/21 09:37:28;;;;;;;1.80;1.10;;;21.30;99.90;;;;;;5147709;27;20039;-77
2023/07/21 09:39:59;;;;;;;2.22;1.13;;;21.30;99.90;;;;;;5151816;27;20448;-77
2023/07/21 09:42:28;;;;;;;5.28;1.20;;;21.40;99.90;;;;;;5147200;27;20039;-78
2023/07/21 09:44:56;;;;;;;1.90;1.00;;;21.50;99.90;;;;;;5150600;27;20431;-77
2023/07/21 09:47:22;;;;;;;2.53;1.20;;;21.80;99.90;;;;;;5149086;27;20118;-78
2023/07/21 09:49:49;;;;;;;2.28;1.38;;;22.00;99.90;;;;;;5137480;27;20031;-77
2023/07/21 09:52:19;;;;;;;1.67;1.10;;;21.90;99.90;;;;;;5147265;27;20035;-77
2023/07/21 09:55:06;;;;;;;2.33;1.20;;;21.80;99.90;;;;;;5143078;27;20041;-77
2023/07/21 09:57:35;;;;;;;1.63;1.00;;;21.70;99.90;;;;;;5143108;27;20578;-79
2023/07/21 10:00:14;;;;;;;2.90;1.20;;;21.90;99.90;;;;;;5151336;27;20035;-78
2023/07/21 10:02:45;;;;;;;1.95;1.00;;;22.30;99.90;;;;;;5142933;27;20035;-76
2023/07/21 10:05:11;;;;;;;1.80;1.10;;;22.60;99.90;;;;;;5151069;27;20039;-77
2023/07/21 10:07:39;;;;;;;2.47;1.10;;;22.70;99.90;;;;;;5143446;27;20035;-77
2023/07/21 10:10:06;;;;;;;1.98;1.08;;;22.60;99.90;;;;;;5143722;27;20027;-77
2023/07/21 10:12:52;;;;;;;2.38;1.25;;;22.50;99.90;;;;;;5150832;27;20035;-76
2023/07/21 10:15:21;;;;;;;2.80;1.25;;;22.40;99.90;;;;;;5146626;27;20046;-76
2023/07/21 10:18:08;;;;;;;3.78;1.10;;;22.30;99.90;;;;;;5145010;27;20116;-77
2023/07/21 10:20:44;;;;;;;3.03;1.33;;;22.30;99.90;;;;;;5148578;27;20417;-76
2023/07/21 10:23:13;;;;;;;4.63;1.42;;;22.50;99.90;;;;;;5143500;27;20039;-77
2023/07/21 10:25:48;;;;;;;1.95;1.38;;;22.60;99.90;;;;;;5145713;27;20553;-77
2023/07/21 10:28:14;;;;;;;2.55;1.25;;;22.70;99.90;;;;;;5143790;27;20501;-76
2023/07/21 10:30:41;;;;;;;2.10;1.20;;;22.70;99.90;;;;;;5144239;27;20046;-77
2023/07/21 10:33:17;;;;;;;3.10;1.48;;;22.80;99.90;;;;;;5149608;27;20035;-78
2023/07/21 10:35:42;;;;;;;2.85;1.60;;;22.80;99.90;;;;;;5144952;27;20039;-79
2023/07/21 10:38:14;;;;;;;2.60;1.77;;;22.80;99.90;;;;;;5151645;27;20128;-77
2023/07/21 10:40:47;;;;;;;1.67;1.50;;;22.70;99.90;;;;;;5154741;27;20038;-76
2023/07/21 10:43:14;;;;;;;3.38;1.90;;;22.70;99.90;;;;;;5154827;27;20094;-77
2023/07/21 10:45:39;;;;;;;1.70;1.50;;;22.60;99.90;;;;;;5127549;27;20500;-77
2023/07/21 10:48:12;;;;;;;1.70;1.33;;;22.60;99.90;;;;;;5147981;27;20087;-78
2023/07/21 10:50:54;;;;;;;2.40;1.50;;;22.70;99.90;;;;;;5150188;27;20087;-76
2023/07/21 10:53:20;;;;;;;2.63;1.20;;;22.80;99.90;;;;;;5143178;27;20043;-77
2023/07/21 10:55:45;;;;;;;2.50;1.48;;;22.90;99.90;;;;;;5153983;27;20110;-76
2023/07/21 10:58:13;;;;;;;2.28;1.45;;;23.00;99.90;;;;;;5134441;27;20109;-80
2023/07/21 11:00:50;;;;;;;1.70;1.25;;;23.10;99.90;;;;;;5154416;27;20031;-76
2023/07/21 11:03:16;;;;;;;2.63;1.63;;;23.10;99.90;;;;;;5151878;27;20040;-78
2023/07/21 11:05:42;;;;;;;4.00;1.75;;;23.00;99.90;;;;;;5150199;27;20077;-77
2023/07/21 11:08:27;;;;;;;3.75;1.70;;;23.00;99.90;;;;;;5149708;27;20078;-79
2023/07/21 11:10:54;;;;;;;3.58;2.08;;;22.90;99.10;;;;;;5142949;27;20042;-77
2023/07/21 11:13:21;;;;;;;3.10;1.95;;;22.70;99.60;;;;;;5149866;27;20038;-79
2023/07/21 11:15:56;;;;;;;3.38;1.80;;;22.80;99.80;;;;;;5149288;27;20031;-77
2023/07/21 11:18:22;;;;;;;3.08;2.10;;;22.90;99.90;;;;;;5144798;27;20471;-78
2023/07/21 11:20:52;;;;;;;2.15;1.52;;;23.30;99.90;;;;;;5154213;27;20026;-77
2023/07/21 11:23:20;;;;;;;1.83;1.58;;;23.50;99.60;;;;;;5149851;27;20062;-78
2023/07/21 11:26:03;;;;;;;2.40;1.50;;;23.50;99.40;;;;;;5132397;27;20039;-77
2023/07/21 11:28:29;;;;;;;3.00;1.40;;;23.80;99.50;;;;;;5146078;27;20070;-77
2023/07/21 11:30:54;;;;;;;2.03;1.40;;;24.10;99.40;;;;;;5144955;27;20073;-78
2023/07/21 11:33:20;;;;;;;2.00;1.45;;;24.20;99.00;;;;;;5150594;27;20035;-78
2023/07/21 11:35:48;;;;;;;2.92;1.70;;;24.20;99.00;;;;;;5148456;27;20538;-77
2023/07/21 11:38:14;;;;;;;2.25;1.50;;;24.30;98.80;;;;;;5147087;27;20051;-77
2023/07/21 11:40:40;;;;;;;2.10;1.48;;;24.50;98.90;;;;;;5152677;27;20046;-76
2023/07/21 11:43:07;;;;;;;2.15;1.50;;;24.40;98.60;;;;;;5147242;27;20110;-77
2023/07/21 11:45:34;;;;;;;3.25;1.70;;;24.30;98.40;;;;;;5127514;27;20039;-77
2023/07/21 11:48:10;;;;;;;1.95;1.50;;;24.30;98.50;;;;;;5152145;27;20109;-77
2023/07/21 11:50:36;;;;;;;2.30;1.60;;;24.40;98.60;;;;;;5146633;27;20116;-77
2023/07/21 11:53:05;;;;;;;3.00;2.13;;;24.60;98.50;;;;;;5128876;27;20070;-78
2023/07/21 11:55:31;;;;;;;2.25;1.70;;;24.80;98.30;;;;;;5150019;27;20428;-77
2023/07/21 11:57:56;;;;;;;2.60;1.50;;;25.00;97.90;;;;;;5150518;27;20102;-78
2023/07/21 12:00:24;;;;;;;2.17;1.30;;;25.00;98.00;;;;;;5145271;27;20401;-79
2023/07/21 12:02:51;;;;;;;3.53;1.40;;;25.10;97.60;;;;;;5140222;27;20110;-78
2023/07/21 12:05:18;;;;;;;2.17;1.40;;;25.10;97.00;;;;;;5150716;27;20054;-81
2023/07/21 12:07:43;;;;;;;3.15;1.70;;;24.90;96.90;;;;;;5147285;27;20035;-79
2023/07/21 12:10:10;;;;;;;3.63;1.90;;;24.60;97.20;;;;;;5144380;27;20509;-80
2023/07/21 12:12:37;;;;;;;2.30;1.85;;;24.30;97.50;;;;;;5132220;27;20069;-79
2023/07/21 12:15:06;;;;;;;2.83;2.20;;;23.90;97.50;;;;;;5123740;27;20113;-80
2023/07/21 12:17:32;;;;;;;3.67;2.35;;;23.30;97.30;;;;;;5137131;27;20027;-79
2023/07/21 12:19:57;;;;;;;3.53;2.47;;;22.60;98.10;;;;;;5141515;27;20089;-79
2023/07/21 12:22:25;;;;;;;4.57;2.75;;;21.60;99.90;;;;;;5147077;27;20043;-78
2023/07/21 12:24:50;;;;;;;4.03;2.90;;;21.00;99.90;;;;;;5135399;27;20058;-79
2023/07/21 12:27:16;;;;;;;6.75;3.05;;;20.50;99.90;;;;;;5146200;27;20066;-78
2023/07/21 12:29:41;;;;;;;4.53;2.88;;;20.30;99.90;;;;;;5143167;27;20038;-78
2023/07/21 12:32:07;;;;;;;5.85;3.60;;;20.30;99.90;;;;;;5141094;27;20034;-77
2023/07/21 12:34:33;;;;;;;5.75;3.17;;;20.70;99.90;;;;;;5140182;27;20027;-78
2023/07/21 12:36:59;;;;;;;6.25;3.20;;;20.80;99.90;;;;;;5145784;27;20039;-79
2023/07/21 12:39:24;;;;;;;4.95;2.92;;;20.30;99.90;;;;;;5148441;27;20039;-79
2023/07/21 12:41:50;;;;;;;5.78;3.30;;;20.00;99.90;;;;;;5143431;27;20062;-79
2023/07/21 12:44:16;;;;;;;5.35;3.03;;;19.80;99.90;;;;;;5132107;27;20125;-78
2023/07/21 12:46:41;;;;;;;5.32;3.10;;;19.50;99.90;;;;;;5137124;27;20146;-80
2023/07/21 12:49:07;;;;;;;6.18;3.10;;;19.30;99.90;;;;;;5137830;27;20039;-79